CheckWX is a tool to help pilots better visualize weather data.  It is not intended as a substitute for an official pre-flight weather briefing.

00:53:34 UTC

KBGD METAR
Hutchinson County Airport
Borger, Texas, USA
Current

1 hour ago

KBGD 232351Z AUTO 28004KT 10SM CLR 21/M03 A2990 RMK AO2 SLP109 T02061033 10206 20144 56008
Observed
Mar-23 @ 23:51 UTC
Wind
  • 280° at 4 KTS
Visibility
10 SM
Flight Rules
VFR
Cloud Levels
  • Clear skies
Temperature
21°C / 70°F
Dewpoint
-3°C / 27°F
Humidity
20%
Altimeter
29.9" Hg
Pressure
1010.9 hPa
Previous

2 hours ago

KBGD 232251Z AUTO 24009G16KT 10SM CLR 21/M03 A2990 RMK AO2 SLP110 T02061028
Observed
Mar-23 @ 22:51 UTC
Wind
  • 240° at 9 KTS
  • Gusting to 16 KTS
Visibility
10 SM
Flight Rules
VFR
Cloud Levels
  • Clear skies
Temperature
21°C / 70°F
Dewpoint
-3°C / 27°F
Humidity
20%
Altimeter
29.9" Hg
Pressure
1011 hPa
Previous

3 hours ago

KBGD 232151Z AUTO 26011G25KT 200V310 10SM CLR 20/M03 A2992 RMK AO2 SLP115 T02001028
Observed
Mar-23 @ 21:51 UTC
Wind
  • 260° at 11 KTS
  • Gusting to 25 KTS
Visibility
10 SM
Flight Rules
VFR
Cloud Levels
  • Clear skies
Temperature
20°C / 68°F
Dewpoint
-3°C / 27°F
Humidity
21%
Altimeter
29.92" Hg
Pressure
1011.5 hPa